• Join FlightAware (Why Join?)
  • Login
  • US Flag 
03:18AM EDT


 

Airport Tracker/Info


-or-


 

Live Flight TrackerFlight Track Log ✈ DAL6115 ✈ 04-May-2013 ✈ KLGA - KILM

Flight Track Log - Related Links

Times and Time Zones

All times are in EDT time to prevent confusion due to time zone crossing. See the DAL6115 flight status page for this flight to view local times or setup timezone preferences in your user account.

Time Position Orientation Groundspeed Altitude Reporting Facility
EDT Latitude Longitude Course Direction KTS MPH feet Rate Location/Type
11:12AM 40.7667 -73.8333 201° Southwest 160 184 1,400  Level New York TRACON
11:13AM 40.7833 -73.7833 66° East 202 232 4,500 2,760 Climbing New York TRACON
11:14AM 40.8333 -73.7833 360° North 240 276 7,000 2,520 Climbing New York TRACON
11:15AM 40.4714 -74.0060 201° Southwest  Level FlightAware Approximate
11:15AM 40.8000 -73.9000 249° West 290 334 9,900  Level New York TRACON
11:16AM 40.3726 -74.0554 201° Southwest  Level FlightAware Approximate
11:16AM 40.7500 -73.9833 232° Southwest 302 348 12,000  Level New York TRACON
11:17AM 40.2738 -74.1048 201° Southwest  Level FlightAware Approximate
11:17AM 40.6833 -74.0667 223° Southwest 360 414 12,000  Level New York TRACON
11:18AM 40.1779 -74.1610 201° Southwest  Level FlightAware Approximate
11:18AM 40.5833 -74.1333 207° Southwest 370 426 13,400  Level New York TRACON
11:19AM 40.4833 -74.1500 187° South 372 428 15,100 1,620 Climbing New York TRACON
11:20AM 40.3731 -74.1736 189° South 381 438 16,700 900 Climbing New York Center
11:21AM 40.2828 -74.1936 190° South 378 435 17,000 120 Climbing New York Center
11:22AM 40.1611 -74.2203 190° South 396 456 17,000 360 Level New York Center
11:23AM 40.0644 -74.2714 202° Southwest 409 471 17,800 1,380 Climbing Washington Center
11:24AM 39.9803 -74.3678 221° Southwest 393 452 19,700 1,860 Climbing Washington Center
11:25AM 39.8956 -74.4583 219° Southwest 404 465 21,600 1,860 Climbing Washington Center
11:26AM 39.8111 -74.5542 221° Southwest 404 465 23,500 1,920 Climbing Washington Center
11:27AM 39.7264 -74.6500 221° Southwest 404 465 25,500 1,980 Climbing Washington Center
11:28AM 39.6417 -74.7400 219° Southwest 404 465 27,400 1,740 Climbing Washington Center
11:29AM 39.5589 -74.8325 221° Southwest 404 465 29,000 1,320 Climbing Washington Center
11:30AM 39.4844 -74.9114 219° Southwest 399 459 30,200 1,320 Climbing Washington Center
11:31AM 39.3994 -75.0061 221° Southwest 399 459 31,700 900 Climbing Washington Center
11:32AM 39.3103 -75.0981 219° Southwest 399 459 32,000 120 Climbing Washington Center
11:33AM 39.2000 -75.1578 203° Southwest 412 474 32,000  Level Washington Center
11:34AM 39.0836 -75.2067 198° South 426 490 32,000  Level Washington Center
11:35AM 38.9608 -75.2553 197° South 444 511 32,000  Level Washington Center
11:36AM 38.8419 -75.3064 199° South 451 519 32,000  Level Washington Center
11:37AM 38.7233 -75.3547 198° South 451 519 32,000  Level Washington Center
11:38AM 38.6044 -75.4058 199° South 451 519 32,000  Level Washington Center
11:39AM 38.4878 -75.4564 199° South 451 519 32,000  Level Washington Center
11:40AM 38.3669 -75.5042 197° South 451 519 32,000  Level Washington Center
11:41AM 38.2628 -75.5864 212° Southwest 451 519 32,000  Level Washington Center
11:42AM 38.1647 -75.6814 217° Southwest 443 510 32,000  Level Washington Center
11:43AM 38.0644 -75.7736 216° Southwest 443 510 32,000  Level Washington Center
11:44AM 37.9664 -75.8658 217° Southwest 449 517 32,000  Level Washington Center
11:45AM 37.8703 -75.9547 216° Southwest 449 517 32,000  Level Washington Center
11:46AM 37.7678 -76.0594 219° Southwest 444 511 32,000  Level Washington Center
11:47AM 37.6714 -76.1481 216° Southwest 439 505 32,000  Level Washington Center
11:48AM 37.5814 -76.2233 214° Southwest 439 505 32,000  Level Washington Center
11:49AM 37.4850 -76.3117 216° Southwest 433 498 32,000  Level Washington Center
11:50AM 37.3883 -76.3994 216° Southwest 433 498 32,000  Level Washington Center
11:51AM 37.2897 -76.4900 216° Southwest 433 498 32,000  Level Washington Center
11:52AM 37.1847 -76.5642 209° Southwest 433 498 32,000  Level Washington Center
11:53AM 37.0717 -76.6175 201° Southwest 433 498 32,000  Level Washington Center
11:54AM 36.9586 -76.6731 201° Southwest 439 505 32,000  Level Washington Center
11:55AM 36.8456 -76.7261 201° Southwest 439 505 32,000  Level Washington Center
11:56AM 36.7344 -76.7789 201° Southwest 434 499 32,000  Level Washington Center
11:57AM 36.6233 -76.8342 202° Southwest 434 499 32,000 -600 Level Washington Center
11:58AM 36.5122 -76.8842 200° South 429 494 30,900 -1,200 Descending Washington Center
11:59AM 36.4053 -76.9364 201° Southwest 423 487 29,700 -1,200 Descending Washington Center
12:00PM 36.2981 -76.9861 200° South 418 481 28,500 -1,200 Descending Washington Center
12:01PM 36.1933 -77.0358 201° Southwest 413 475 27,400 -1,200 Descending Washington Center
12:02PM 36.0883 -77.0853 201° Southwest 413 475 26,200 -1,260 Descending Washington Center
12:03PM 35.9731 -77.1372 200° South 409 471 24,900 -1,260 Descending Washington Center
12:04PM 35.8658 -77.1864 200° South 402 463 23,700 -1,200 Descending Washington Center
12:05PM 35.7672 -77.2331 201° Southwest 397 457 22,500 -900 Descending Washington Center
12:06PM 35.6683 -77.2794 201° Southwest 392 451 22,000 -300 Descending Washington Center
12:07PM 35.5719 -77.3233 200° South 386 444 22,000 -300 Level Washington Center
12:08PM 35.4731 -77.3672 200° South 381 438 21,500 -960 Descending Washington Center
12:09PM 35.3744 -77.4133 201° Southwest 381 438 20,100 -1,500 Descending Washington Center
12:10PM 35.2778 -77.4569 200° South 381 438 18,600 -1,440 Descending Washington Center
12:11PM 35.1811 -77.5006 200° South 375 432 17,300 -1,140 Descending Washington Center
12:12PM 35.1094 -77.5344 201° Southwest 375 432 16,300 -660 Descending Washington Center
12:13PM 35.0108 -77.5803 201° Southwest 364 419 16,000 -660 Descending Washington Center
12:14PM 34.9183 -77.6208 200° South 358 412 15,000 -1,020 Descending Washington Center
12:15PM 34.8300 -77.6617 201° Southwest 353 406 14,100 -1,080 Descending Washington Center
12:16PM 34.7500 -77.7003 202° Southwest 340 391 12,900 -1,560 Descending Washington Center
12:17PM 34.6742 -77.7336 200° South 313 360 11,000 -1,980 Descending Washington Center
12:18PM 34.6006 -77.7669 200° South 292 336 8,900 -2,100 Descending Washington Center
12:19PM 34.5392 -77.8208 216° Southwest 282 325 6,900 -1,980 Descending Washington Center
12:20PM 34.4881 -77.8825 225° Southwest 277 319 5,100 -1,860 Descending Washington Center
12:21PM 34.4283 -77.9361 217° Southwest 277 319 3,200 -1,380 Descending Washington Center
12:22PM 34.3714 -77.9797 212° Southwest 267 307 2,300 -900 Descending Washington Center